Time;durP1;ratioP1;P1;durP2;ratioP2;P2;SDS_P1;SDS_P2;PMS_P1;PMS_P2;Temp;Humidity;BMP_temperature;BMP_pressure;BME280_temperature;BME280_humidity;BME280_pressure;Samples;Min_cycle;Max_cycle;Signal;HPM_P1;HPM_P2
2022/06/04 00:00:23;;;;;;;13.40;5.35;;;11.70;99.90;;;;;;5029588;28;20041;-61
2022/06/04 00:02:49;;;;;;;19.00;5.97;;;11.80;99.90;;;;;;5033585;28;20495;-60
2022/06/04 00:05:18;;;;;;;14.70;5.55;;;11.80;99.90;;;;;;5034768;28;20041;-60
2022/06/04 00:07:44;;;;;;;13.70;5.93;;;11.70;99.90;;;;;;5029133;28;20459;-61
2022/06/04 00:15:56;;;;;;;12.95;5.10;;;11.70;99.90;;;;;;5032708;28;20526;-61
2022/06/04 00:18:23;;;;;;;13.13;6.03;;;11.70;99.90;;;;;;5042546;28;20052;-61
2022/06/04 00:20:50;;;;;;;14.43;6.15;;;11.70;99.90;;;;;;5038614;28;20038;-60
2022/06/04 00:23:16;;;;;;;11.57;6.15;;;11.70;99.90;;;;;;5027701;28;20118;-60
2022/06/04 00:25:47;;;;;;;12.70;5.78;;;11.70;99.90;;;;;;5039284;28;20357;-60
2022/06/04 00:28:13;;;;;;;12.77;5.80;;;11.60;99.90;;;;;;5045008;28;20106;-61
2022/06/04 00:30:39;;;;;;;14.85;6.65;;;11.60;99.90;;;;;;5038589;28;20137;-60
2022/06/04 00:33:06;;;;;;;19.33;7.57;;;11.70;99.90;;;;;;5036279;28;20049;-61
2022/06/04 00:35:33;;;;;;;14.85;6.40;;;11.60;99.90;;;;;;5032813;28;20048;-60
2022/06/04 00:37:59;;;;;;;19.15;7.72;;;11.60;99.90;;;;;;5040474;28;20384;-60
2022/06/04 00:40:31;;;;;;;14.88;6.53;;;11.60;99.90;;;;;;5029556;28;20041;-60
2022/06/04 00:42:58;;;;;;;14.30;7.50;;;11.50;99.90;;;;;;5031151;28;20059;-61
2022/06/04 00:45:35;;;;;;;18.30;7.03;;;11.40;99.90;;;;;;5039965;28;20069;-60
2022/06/04 00:48:05;;;;;;;15.85;6.82;;;11.40;99.90;;;;;;5035896;28;20045;-60
2022/06/04 00:50:33;;;;;;;18.55;7.60;;;11.50;99.90;;;;;;5044413;28;20033;-61
2022/06/04 00:53:01;;;;;;;18.40;7.97;;;11.40;99.90;;;;;;5035417;28;20053;-60
2022/06/04 00:55:34;;;;;;;17.90;8.40;;;11.30;99.90;;;;;;5033219;28;20581;-60
2022/06/04 00:58:30;;;;;;;18.52;8.15;;;11.50;99.90;;;;;;5026470;28;20119;-60
2022/06/04 01:01:04;;;;;;;19.15;8.40;;;11.30;99.90;;;;;;5026102;28;20119;-60
2022/06/04 01:03:39;;;;;;;18.10;7.95;;;11.30;99.90;;;;;;5026917;28;20068;-60
2022/06/04 01:06:25;;;;;;;17.88;7.97;;;11.40;99.90;;;;;;5028084;28;20033;-60
2022/06/04 01:09:05;;;;;;;12.52;6.75;;;11.50;99.90;;;;;;5027338;28;20531;-61
2022/06/04 01:12:11;;;;;;;13.30;6.93;;;11.50;99.90;;;;;;5040715;28;20064;-60
2022/06/04 01:15:07;;;;;;;18.77;6.95;;;11.30;99.90;;;;;;5052066;28;20551;-60
2022/06/04 01:17:39;;;;;;;16.60;7.45;;;11.30;99.90;;;;;;5040959;28;20049;-61
2022/06/04 01:20:25;;;;;;;19.63;7.65;;;11.40;99.90;;;;;;5032271;28;20462;-61
2022/06/04 01:23:22;;;;;;;16.95;6.55;;;11.30;99.90;;;;;;5039756;28;20033;-60
2022/06/04 01:26:15;;;;;;;15.00;6.57;;;11.30;99.90;;;;;;5033916;28;20102;-60
2022/06/04 01:28:50;;;;;;;16.65;7.80;;;11.40;99.90;;;;;;5017177;28;20045;-60
2022/06/04 01:31:24;;;;;;;16.80;7.53;;;11.40;99.90;;;;;;5032793;28;20034;-61
2022/06/04 01:33:56;;;;;;;19.65;7.78;;;11.40;99.90;;;;;;5033327;28;20048;-61
2022/06/04 01:36:28;;;;;;;15.18;6.35;;;11.30;99.90;;;;;;5033953;28;20041;-60
2022/06/04 01:38:59;;;;;;;17.52;7.32;;;11.40;99.90;;;;;;5045584;28;20120;-60
2022/06/04 01:41:47;;;;;;;17.63;7.30;;;11.30;99.90;;;;;;5046742;28;20487;-60
2022/06/04 01:44:29;;;;;;;17.95;6.70;;;11.40;99.90;;;;;;5046091;28;20032;-61
2022/06/04 01:46:58;;;;;;;13.65;6.00;;;11.30;99.90;;;;;;5033248;28;20041;-61
2022/06/04 01:49:27;;;;;;;11.70;4.85;;;11.30;99.90;;;;;;5035118;28;20570;-60
2022/06/04 01:51:58;;;;;;;11.43;6.00;;;11.30;99.90;;;;;;5048440;28;20194;-61
2022/06/04 01:54:28;;;;;;;14.85;6.68;;;11.30;99.90;;;;;;5044023;28;20119;-61
2022/06/04 01:57:05;;;;;;;11.93;5.65;;;11.20;99.90;;;;;;5037063;28;20041;-60
2022/06/04 01:59:40;;;;;;;12.55;6.28;;;11.20;99.90;;;;;;5045513;28;20060;-60
2022/06/04 02:02:10;;;;;;;13.98;6.45;;;11.30;99.90;;;;;;5033064;28;20065;-61
2022/06/04 02:04:43;;;;;;;12.05;6.38;;;11.20;99.90;;;;;;5037186;28;20037;-60
2022/06/04 02:07:31;;;;;;;10.05;5.07;;;11.10;99.90;;;;;;5035185;28;20033;-61
2022/06/04 02:10:28;;;;;;;12.98;5.97;;;11.30;99.90;;;;;;5041286;28;20049;-60
2022/06/04 02:12:59;;;;;;;10.48;5.35;;;11.10;99.90;;;;;;5040921;28;20053;-60
2022/06/04 02:15:33;;;;;;;13.50;6.28;;;11.20;99.90;;;;;;5033521;28;20079;-60
2022/06/04 02:18:02;;;;;;;12.63;6.28;;;11.20;99.90;;;;;;5029627;28;20044;-60
2022/06/04 02:20:27;;;;;;;14.15;6.90;;;11.20;99.90;;;;;;5040843;28;20466;-60
2022/06/04 02:22:54;;;;;;;11.68;6.35;;;11.00;99.90;;;;;;5034804;28;20128;-61
2022/06/04 02:25:21;;;;;;;10.57;5.00;;;11.10;99.90;;;;;;5028640;28;20072;-61
2022/06/04 02:27:52;;;;;;;12.35;6.28;;;11.00;99.90;;;;;;5046032;28;20757;-61
2022/06/04 02:30:20;;;;;;;9.73;5.18;;;11.10;99.90;;;;;;5047702;28;20080;-60
2022/06/04 02:33:03;;;;;;;9.38;5.15;;;11.00;99.90;;;;;;5038878;28;20504;-61
2022/06/04 02:35:47;;;;;;;10.30;4.90;;;11.00;99.90;;;;;;5033113;28;20081;-61
2022/06/04 02:38:23;;;;;;;12.52;5.97;;;11.10;99.90;;;;;;5037985;28;20049;-61
2022/06/04 02:41:01;;;;;;;12.32;5.10;;;10.90;99.90;;;;;;5044884;28;20055;-60
2022/06/04 02:43:50;;;;;;;10.00;4.45;;;11.00;99.90;;;;;;5028321;28;20033;-60
2022/06/04 02:46:28;;;;;;;8.48;5.35;;;11.10;99.90;;;;;;5034751;28;20551;-61
2022/06/04 02:49:11;;;;;;;10.13;4.40;;;11.10;99.90;;;;;;5047879;28;20139;-61
2022/06/04 02:51:42;;;;;;;9.77;4.30;;;11.00;99.90;;;;;;5047260;28;20045;-60
2022/06/04 02:54:19;;;;;;;10.45;4.93;;;11.00;99.90;;;;;;5033520;28;20043;-60
2022/06/04 02:56:46;;;;;;;10.82;5.13;;;11.00;99.90;;;;;;5061154;28;20048;-61
2022/06/04 02:59:16;;;;;;;8.98;4.75;;;11.00;99.90;;;;;;5045521;28;20040;-60
2022/06/04 03:01:44;;;;;;;7.40;4.40;;;10.90;99.90;;;;;;5038667;28;20037;-60
2022/06/04 03:04:10;;;;;;;9.73;4.70;;;10.90;99.90;;;;;;5034448;28;20045;-60
2022/06/04 03:06:37;;;;;;;8.57;5.10;;;10.90;99.90;;;;;;5033829;28;20104;-60
2022/06/04 03:09:06;;;;;;;7.03;3.78;;;10.80;99.90;;;;;;5045430;28;20138;-61
2022/06/04 03:11:47;;;;;;;10.07;4.10;;;10.90;99.90;;;;;;5028849;28;20052;-61
2022/06/04 03:14:14;;;;;;;8.80;4.72;;;10.90;99.90;;;;;;5042151;28;20058;-61
2022/06/04 03:16:42;;;;;;;8.15;4.38;;;10.90;99.90;;;;;;5038598;28;20480;-61
2022/06/04 03:19:09;;;;;;;7.60;4.53;;;10.80;99.90;;;;;;5034220;28;20053;-61
2022/06/04 03:21:37;;;;;;;6.28;3.90;;;10.90;99.90;;;;;;5027317;28;20045;-61
2022/06/04 03:24:04;;;;;;;6.32;4.60;;;10.90;99.90;;;;;;5037695;28;20048;-61
2022/06/04 03:26:30;;;;;;;8.35;4.43;;;10.90;99.90;;;;;;5044056;28;20044;-60
2022/06/04 03:28:56;;;;;;;6.85;4.25;;;10.80;99.90;;;;;;5029643;28;20527;-60
2022/06/04 03:31:22;;;;;;;6.35;4.05;;;11.00;99.90;;;;;;5041055;28;20056;-60
2022/06/04 03:33:48;;;;;;;7.10;4.60;;;11.00;99.90;;;;;;5032994;28;20327;-61
2022/06/04 03:36:14;;;;;;;5.53;3.58;;;11.00;99.90;;;;;;5044555;28;20115;-60
2022/06/04 03:38:40;;;;;;;8.98;3.67;;;11.00;99.90;;;;;;5028423;28;20032;-60
2022/06/04 03:41:05;;;;;;;7.47;4.07;;;10.90;99.90;;;;;;5043517;28;20043;-62
2022/06/04 03:43:31;;;;;;;7.28;3.90;;;10.90;99.90;;;;;;5042857;28;20482;-60
2022/06/04 03:45:57;;;;;;;6.13;3.83;;;10.90;99.90;;;;;;5035875;28;20076;-61
2022/06/04 03:48:22;;;;;;;7.32;3.50;;;11.10;99.90;;;;;;5029709;28;20111;-61
2022/06/04 03:50:48;;;;;;;8.68;4.40;;;11.00;99.90;;;;;;5033778;28;20056;-60
2022/06/04 03:53:14;;;;;;;7.20;3.72;;;11.10;99.90;;;;;;5034495;28;20073;-60
2022/06/04 03:55:40;;;;;;;5.18;3.83;;;11.00;99.90;;;;;;5034159;28;20107;-61
2022/06/04 03:58:06;;;;;;;4.30;3.53;;;11.10;99.90;;;;;;5042306;28;20475;-60
2022/06/04 04:00:34;;;;;;;10.65;4.53;;;11.20;99.90;;;;;;5038219;28;20566;-61
2022/06/04 04:03:08;;;;;;;5.82;4.28;;;11.10;99.90;;;;;;5045596;28;20411;-60
2022/06/04 04:05:44;;;;;;;9.02;4.80;;;11.10;99.90;;;;;;5032237;28;20109;-60
2022/06/04 04:08:10;;;;;;;8.43;4.68;;;11.10;99.90;;;;;;5031190;28;20115;-61
2022/06/04 04:10:39;;;;;;;6.75;4.47;;;11.20;99.90;;;;;;5023102;28;20463;-60
2022/06/04 04:13:05;;;;;;;7.45;4.80;;;11.10;99.90;;;;;;5043325;28;20091;-60
2022/06/04 04:15:31;;;;;;;8.52;5.00;;;11.20;99.90;;;;;;5027924;28;20120;-59
2022/06/04 04:17:57;;;;;;;10.45;4.88;;;11.10;99.90;;;;;;5043569;28;20125;-60
2022/06/04 04:20:31;;;;;;;7.10;4.55;;;11.20;99.90;;;;;;5029475;28;20120;-60
2022/06/04 04:22:58;;;;;;;8.80;4.72;;;11.20;99.90;;;;;;5031308;28;20041;-60
2022/06/04 04:25:26;;;;;;;8.73;4.90;;;11.30;99.90;;;;;;5038829;28;20044;-60
2022/06/04 04:27:52;;;;;;;8.77;5.00;;;11.20;99.90;;;;;;5034831;28;20042;-60
2022/06/04 04:30:21;;;;;;;7.75;4.65;;;11.30;99.90;;;;;;5032930;28;20549;-59
2022/06/04 04:32:47;;;;;;;7.95;4.32;;;11.40;99.90;;;;;;5026313;28;20099;-59
2022/06/04 04:35:16;;;;;;;8.70;5.25;;;11.40;99.90;;;;;;5034971;28;20132;-59
2022/06/04 04:37:42;;;;;;;10.15;4.70;;;11.50;99.90;;;;;;5028794;28;20052;-59
2022/06/04 04:40:10;;;;;;;7.53;4.25;;;11.50;99.90;;;;;;5028593;28;20411;-59
2022/06/04 04:42:36;;;;;;;7.20;4.32;;;11.50;99.90;;;;;;5038892;28;20524;-60
2022/06/04 04:45:02;;;;;;;7.97;3.47;;;11.70;99.90;;;;;;5042844;28;20094;-59
2022/06/04 04:47:27;;;;;;;8.40;4.38;;;11.70;99.90;;;;;;5041782;28;20040;-59
2022/06/04 04:49:53;;;;;;;6.47;4.18;;;11.70;99.90;;;;;;5005527;28;20037;-59
2022/06/04 04:52:19;;;;;;;9.13;3.67;;;11.60;99.90;;;;;;5032361;28;20037;-60
2022/06/04 04:54:45;;;;;;;6.18;4.43;;;11.70;99.90;;;;;;5046892;28;20029;-59
2022/06/04 04:57:10;;;;;;;6.50;4.82;;;11.70;99.90;;;;;;5037900;28;20126;-59
2022/06/04 04:59:36;;;;;;;7.65;4.22;;;11.60;99.90;;;;;;5028666;28;20041;-59
2022/06/04 05:02:02;;;;;;;8.70;5.15;;;11.70;99.90;;;;;;5031014;28;20045;-59
2022/06/04 05:04:28;;;;;;;6.68;5.10;;;11.60;99.90;;;;;;5028889;28;20041;-59
2022/06/04 05:06:54;;;;;;;7.55;5.00;;;11.70;99.90;;;;;;5037738;28;20479;-60
2022/06/04 05:09:20;;;;;;;9.52;5.45;;;11.60;99.90;;;;;;5039705;28;20414;-58
2022/06/04 05:11:45;;;;;;;6.18;4.30;;;11.70;99.90;;;;;;4990270;28;1251481;-58
2022/06/04 05:14:11;;;;;;;8.38;4.75;;;11.70;99.90;;;;;;5047073;28;20056;-58
2022/06/04 05:16:38;;;;;;;6.35;4.50;;;11.80;99.90;;;;;;5040553;28;20074;-59
2022/06/04 05:19:05;;;;;;;8.27;4.97;;;11.70;99.90;;;;;;5041992;28;20541;-59
2022/06/04 05:21:42;;;;;;;11.02;5.55;;;11.90;99.90;;;;;;5031640;28;20036;-59
2022/06/04 05:24:14;;;;;;;11.32;5.38;;;12.00;99.90;;;;;;5033749;28;20752;-59
2022/06/04 05:26:40;;;;;;;6.93;4.93;;;12.10;99.90;;;;;;5049979;28;20049;-60
2022/06/04 05:29:06;;;;;;;7.20;4.90;;;12.40;99.90;;;;;;5049082;28;20044;-59
2022/06/04 05:31:31;;;;;;;6.35;4.50;;;12.70;99.90;;;;;;5040615;28;20040;-59
2022/06/04 05:33:57;;;;;;;7.00;4.13;;;13.00;99.90;;;;;;5012708;28;20041;-60
2022/06/04 05:36:23;;;;;;;6.35;3.72;;;13.40;99.90;;;;;;5034743;28;20041;-60
2022/06/04 05:38:49;;;;;;;5.10;3.50;;;13.60;99.90;;;;;;5041742;28;20128;-60
2022/06/04 05:41:14;;;;;;;5.82;3.70;;;13.60;99.90;;;;;;5060211;28;20055;-60
2022/06/04 05:43:41;;;;;;;5.40;3.30;;;13.70;99.90;;;;;;5045610;28;20488;-60
2022/06/04 05:46:09;;;;;;;4.65;3.10;;;13.90;99.90;;;;;;5049850;28;20488;-60
2022/06/04 05:48:40;;;;;;;5.70;3.25;;;14.00;99.90;;;;;;5050592;28;20077;-60
2022/06/04 05:51:08;;;;;;;4.95;3.00;;;14.20;99.90;;;;;;5035635;28;20041;-59
2022/06/04 05:53:34;;;;;;;4.15;2.55;;;14.30;99.90;;;;;;5044522;28;20048;-60
2022/06/04 05:55:59;;;;;;;4.05;2.90;;;14.40;99.90;;;;;;5025377;28;20071;-61
2022/06/04 05:58:25;;;;;;;5.22;3.00;;;14.30;99.90;;;;;;5041583;28;20072;-59
2022/06/04 06:00:59;;;;;;;3.92;2.80;;;14.30;99.90;;;;;;5047883;28;20043;-60
2022/06/04 06:03:24;;;;;;;6.07;2.70;;;14.20;99.90;;;;;;5043324;28;20049;-60
2022/06/04 06:05:50;;;;;;;4.95;2.80;;;14.30;99.90;;;;;;5033513;28;20071;-60
2022/06/04 06:08:16;;;;;;;3.85;2.80;;;14.50;99.90;;;;;;5017907;28;20099;-60
2022/06/04 06:10:44;;;;;;;2.97;2.53;;;14.50;99.90;;;;;;5039378;28;20484;-60
2022/06/04 06:13:10;;;;;;;4.35;2.83;;;14.60;99.90;;;;;;5034078;28;20069;-60
2022/06/04 06:15:37;;;;;;;4.32;2.80;;;14.40;99.90;;;;;;5042753;28;20395;-59
2022/06/04 06:18:04;;;;;;;4.72;2.47;;;14.60;99.90;;;;;;5031196;28;20156;-60
2022/06/04 06:20:29;;;;;;;5.47;2.65;;;14.60;99.90;;;;;;5047224;28;20106;-60
2022/06/04 06:22:55;;;;;;;6.07;2.47;;;14.60;99.90;;;;;;5052532;28;20037;-60
2022/06/04 06:25:21;;;;;;;6.20;3.00;;;14.70;99.90;;;;;;5051978;28;20059;-60
2022/06/04 06:27:48;;;;;;;6.30;2.67;;;14.80;99.90;;;;;;5026862;28;20148;-60
2022/06/04 06:30:14;;;;;;;3.83;2.20;;;15.10;99.90;;;;;;5038030;28;20487;-60
2022/06/04 06:32:40;;;;;;;7.50;3.20;;;15.30;99.90;;;;;;5043375;28;20041;-60
2022/06/04 06:35:07;;;;;;;3.95;2.80;;;15.10;99.90;;;;;;5045098;28;20045;-61
2022/06/04 06:37:34;;;;;;;4.30;2.65;;;15.10;99.90;;;;;;5043314;28;20064;-59
2022/06/04 06:40:00;;;;;;;5.72;2.83;;;15.30;99.90;;;;;;5018860;28;20540;-60
2022/06/04 06:42:25;;;;;;;5.63;2.78;;;15.40;99.90;;;;;;5035196;28;20498;-59
2022/06/04 06:44:52;;;;;;;3.58;2.20;;;15.70;99.90;;;;;;5036619;28;20348;-59
2022/06/04 06:47:19;;;;;;;4.53;2.42;;;16.20;99.90;;;;;;5034372;28;20033;-61
2022/06/04 06:49:45;;;;;;;4.32;2.45;;;16.30;99.90;;;;;;5043206;28;20037;-60
2022/06/04 06:52:11;;;;;;;4.78;2.70;;;16.40;99.90;;;;;;5041827;28;20526;-60
2022/06/04 06:54:37;;;;;;;3.30;2.10;;;16.80;99.90;;;;;;5022160;28;20194;-60
2022/06/04 06:57:06;;;;;;;2.53;1.58;;;17.00;99.90;;;;;;5033136;28;20572;-61
2022/06/04 06:59:32;;;;;;;3.90;1.95;;;16.80;99.90;;;;;;5034955;28;20037;-60
2022/06/04 07:01:59;;;;;;;4.40;2.03;;;17.10;99.90;;;;;;5032396;28;20038;-60
2022/06/04 07:04:27;;;;;;;3.55;2.03;;;17.30;99.90;;;;;;5040153;28;20029;-60
2022/06/04 07:06:57;;;;;;;4.10;2.28;;;16.60;99.90;;;;;;5031045;28;20037;-61
2022/06/04 07:09:32;;;;;;;2.70;1.50;;;16.60;99.90;;;;;;5033076;28;20065;-61
2022/06/04 07:11:59;;;;;;;5.05;2.00;;;16.50;99.90;;;;;;5035045;28;20056;-61
2022/06/04 07:14:25;;;;;;;5.40;1.73;;;16.40;99.90;;;;;;5039305;28;20048;-61
2022/06/04 07:16:52;;;;;;;2.83;1.60;;;16.90;99.90;;;;;;5042169;28;20087;-61
2022/06/04 07:19:20;;;;;;;3.17;1.80;;;17.00;99.90;;;;;;5037118;28;20037;-62
2022/06/04 07:21:46;;;;;;;2.15;1.30;;;17.20;99.90;;;;;;5043161;28;20097;-61
2022/06/04 07:24:12;;;;;;;3.92;1.90;;;17.10;99.90;;;;;;5037923;28;20430;-61
2022/06/04 07:26:39;;;;;;;4.57;1.65;;;16.90;99.90;;;;;;5033375;28;20067;-61
2022/06/04 07:29:05;;;;;;;3.97;1.20;;;16.90;99.90;;;;;;5035247;28;20384;-62
2022/06/04 07:31:31;;;;;;;2.90;1.23;;;17.30;99.90;;;;;;5051016;28;20043;-62
2022/06/04 07:33:58;;;;;;;2.97;1.27;;;17.40;99.90;;;;;;5038031;28;20038;-61
2022/06/04 07:36:34;;;;;;;3.15;1.20;;;17.30;99.90;;;;;;5054193;28;20091;-61
2022/06/04 07:39:00;;;;;;;4.53;1.85;;;17.20;99.90;;;;;;5039179;28;20056;-61
2022/06/04 07:41:39;;;;;;;3.45;1.25;;;17.40;99.90;;;;;;5034329;28;20054;-61
2022/06/04 07:44:08;;;;;;;2.75;1.42;;;17.60;99.90;;;;;;5028840;28;20132;-61
2022/06/04 07:46:35;;;;;;;5.65;1.65;;;17.50;99.90;;;;;;5029532;28;20441;-61
2022/06/04 07:49:03;;;;;;;4.60;2.15;;;17.50;99.90;;;;;;5030638;28;20041;-61
2022/06/04 07:51:30;;;;;;;4.18;1.77;;;17.40;99.90;;;;;;5030284;28;20045;-61
2022/06/04 07:53:56;;;;;;;3.45;1.70;;;17.80;99.90;;;;;;5031028;28;20042;-58
2022/06/04 07:56:23;;;;;;;5.07;1.73;;;17.90;99.90;;;;;;5028920;28;20071;-61
2022/06/04 07:58:49;;;;;;;3.80;1.50;;;18.10;99.90;;;;;;5030388;28;20056;-61
2022/06/04 08:01:17;;;;;;;6.35;1.80;;;18.30;99.90;;;;;;5029324;28;20491;-61
2022/06/04 08:03:44;;;;;;;2.38;1.05;;;18.50;99.90;;;;;;5028850;28;20511;-58
2022/06/04 08:06:11;;;;;;;3.80;1.40;;;18.50;99.90;;;;;;5030070;28;20108;-61
2022/06/04 08:08:37;;;;;;;1.98;1.25;;;18.20;99.90;;;;;;5028685;28;20511;-61
2022/06/04 08:13:48;;;;;;;4.47;1.40;;;18.20;99.90;;;;;;5028831;28;20479;-61
2022/06/04 08:16:14;;;;;;;3.63;1.70;;;18.30;99.90;;;;;;5030170;28;20064;-61
2022/06/04 08:18:40;;;;;;;2.90;1.40;;;18.10;99.90;;;;;;5028667;28;20045;-61
2022/06/04 08:21:06;;;;;;;2.83;1.23;;;18.00;99.90;;;;;;5028468;28;20057;-61
2022/06/04 08:23:32;;;;;;;2.83;1.52;;;18.20;99.90;;;;;;5028787;28;20703;-61
2022/06/04 08:25:58;;;;;;;4.57;1.67;;;18.10;99.90;;;;;;5028848;28;20100;-61
2022/06/04 08:28:24;;;;;;;3.30;1.63;;;18.10;99.90;;;;;;5028284;28;20535;-61
2022/06/04 08:31:00;;;;;;;3.75;1.40;;;18.20;99.90;;;;;;5028262;28;20053;-61
2022/06/04 08:33:26;;;;;;;4.45;1.45;;;18.60;99.90;;;;;;5028622;28;20049;-61
2022/06/04 08:35:52;;;;;;;4.43;1.58;;;18.80;99.90;;;;;;5029580;28;20060;-61
2022/06/04 08:38:17;;;;;;;3.70;1.40;;;18.70;99.90;;;;;;5044951;28;20041;-61
2022/06/04 08:40:49;;;;;;;3.65;1.20;;;18.80;99.90;;;;;;5031670;28;20045;-61
2022/06/04 08:43:51;;;;;;;3.35;1.60;;;19.00;99.90;;;;;;5015262;28;20488;-61
2022/06/04 08:46:27;;;;;;;4.50;1.73;;;19.10;99.90;;;;;;5033269;28;20123;-61
2022/06/04 08:48:54;;;;;;;2.55;1.20;;;19.10;99.90;;;;;;5032014;28;20531;-61
2022/06/04 08:51:26;;;;;;;2.42;1.33;;;19.50;99.90;;;;;;5033018;28;20060;-59
2022/06/04 08:53:55;;;;;;;2.42;1.20;;;19.50;99.90;;;;;;5033406;28;20041;-59
2022/06/04 08:59:28;;;;;;;1.95;1.10;;;19.60;99.90;;;;;;5033419;28;20057;-59
2022/06/04 09:02:01;;;;;;;2.80;1.35;;;19.70;99.90;;;;;;5033041;28;20530;-60
2022/06/04 09:05:08;;;;;;;2.78;1.33;;;19.00;99.90;;;;;;5033037;28;20044;-60
2022/06/04 09:07:44;;;;;;;1.75;0.90;;;19.20;99.90;;;;;;4999262;28;20054;-60
2022/06/04 09:10:20;;;;;;;4.15;1.20;;;19.50;99.90;;;;;;5031880;28;20125;-60
2022/06/04 09:12:48;;;;;;;3.55;1.02;;;19.30;99.90;;;;;;5030683;28;20065;-60
2022/06/04 09:15:29;;;;;;;2.78;1.20;;;19.10;99.90;;;;;;5031350;28;20057;-60
2022/06/04 09:17:57;;;;;;;3.35;1.27;;;19.70;99.90;;;;;;5031134;28;20053;-60
2022/06/04 09:20:32;;;;;;;3.03;1.70;;;19.90;99.90;;;;;;5014675;28;20052;-60
2022/06/04 09:23:34;;;;;;;3.65;1.38;;;20.10;99.90;;;;;;5032630;28;20087;-60
2022/06/04 09:26:14;;;;;;;4.93;1.38;;;19.90;99.90;;;;;;5031188;28;20428;-60
2022/06/04 09:29:10;;;;;;;4.47;1.10;;;20.10;99.90;;;;;;5031096;28;20049;-60
2022/06/04 09:32:09;;;;;;;2.85;1.38;;;20.20;99.90;;;;;;5032582;28;20392;-60
2022/06/04 09:34:47;;;;;;;4.07;1.63;;;19.70;99.90;;;;;;5032736;28;20041;-60
2022/06/04 09:37:13;;;;;;;2.40;1.38;;;20.00;99.90;;;;;;5030918;28;20049;-60
2022/06/04 09:39:42;;;;;;;4.13;1.10;;;20.20;99.90;;;;;;5031330;28;20128;-60
2022/06/04 09:42:13;;;;;;;3.47;1.30;;;20.00;99.90;;;;;;5031700;28;20064;-60
2022/06/04 09:45:03;;;;;;;2.63;1.30;;;20.10;99.90;;;;;;5030829;28;20067;-60
2022/06/04 09:47:31;;;;;;;3.33;1.00;;;19.80;99.90;;;;;;5030547;28;20487;-60
2022/06/04 09:50:05;;;;;;;2.63;1.23;;;19.80;99.90;;;;;;5030777;28;20033;-60
2022/06/04 09:52:40;;;;;;;3.10;1.45;;;20.00;99.90;;;;;;5029957;28;20045;-60
2022/06/04 09:55:22;;;;;;;3.47;1.42;;;19.70;99.90;;;;;;5031828;28;20045;-60
2022/06/04 09:58:01;;;;;;;2.88;1.27;;;19.40;99.90;;;;;;5031440;28;20037;-60
2022/06/04 10:00:37;;;;;;;2.40;1.00;;;19.40;99.90;;;;;;5030346;28;20083;-60
2022/06/04 10:03:14;;;;;;;3.15;1.17;;;19.80;99.90;;;;;;5046851;28;20049;-60
2022/06/04 10:05:56;;;;;;;3.88;1.30;;;19.70;99.90;;;;;;5030321;28;20469;-60
2022/06/04 10:08:24;;;;;;;2.58;0.93;;;19.70;99.90;;;;;;5030264;28;20053;-60
2022/06/04 10:10:58;;;;;;;4.38;1.15;;;19.70;99.90;;;;;;5030275;28;20064;-62
2022/06/04 10:16:17;;;;;;;3.50;1.27;;;19.80;99.90;;;;;;5029977;28;20051;-61
2022/06/04 10:18:57;;;;;;;2.70;1.10;;;20.00;99.90;;;;;;5030035;28;20068;-61
2022/06/04 10:21:35;;;;;;;2.17;1.00;;;20.10;99.90;;;;;;5030041;28;20058;-61
2022/06/04 10:24:04;;;;;;;2.85;1.10;;;19.60;99.90;;;;;;5029958;28;20045;-61
2022/06/04 10:26:47;;;;;;;4.15;1.50;;;20.00;99.90;;;;;;5030213;28;20124;-61
2022/06/04 10:29:18;;;;;;;3.85;1.40;;;20.10;99.90;;;;;;5031476;28;20044;-60
2022/06/04 10:31:53;;;;;;;4.65;1.33;;;20.00;99.90;;;;;;5030094;28;20045;-61
2022/06/04 10:34:30;;;;;;;3.50;1.27;;;19.90;99.90;;;;;;5029974;28;20126;-61
2022/06/04 10:37:31;;;;;;;5.18;1.50;;;20.20;99.90;;;;;;5031143;28;20037;-61
2022/06/04 10:40:34;;;;;;;5.07;1.70;;;19.70;99.90;;;;;;4953446;28;20046;-61
2022/06/04 10:43:30;;;;;;;4.82;1.50;;;19.60;99.90;;;;;;5046344;28;20064;-61
2022/06/04 10:46:05;;;;;;;4.55;1.77;;;19.60;99.90;;;;;;5029897;28;20041;-61
2022/06/04 10:48:36;;;;;;;4.53;1.30;;;19.50;99.90;;;;;;5030986;28;20489;-61
2022/06/04 10:51:27;;;;;;;5.20;1.35;;;19.70;99.90;;;;;;5029646;28;20132;-61
2022/06/04 10:53:59;;;;;;;7.20;1.52;;;19.80;99.90;;;;;;5029664;28;20049;-60
2022/06/04 10:56:34;;;;;;;4.30;1.55;;;20.00;99.90;;;;;;5029463;28;20057;-61
2022/06/04 10:59:17;;;;;;;3.55;1.38;;;19.70;99.90;;;;;;5031040;28;20041;-61
2022/06/04 11:01:48;;;;;;;3.63;1.23;;;20.00;99.90;;;;;;5034656;28;20080;-61
2022/06/04 11:04:38;;;;;;;5.53;1.35;;;20.10;99.90;;;;;;5037456;28;20041;-61
2022/06/04 11:07:14;;;;;;;4.15;1.00;;;20.10;99.90;;;;;;5031968;28;20071;-60
2022/06/04 11:09:42;;;;;;;2.15;1.00;;;20.00;99.90;;;;;;5030534;28;20527;-59
2022/06/04 11:12:40;;;;;;;4.20;1.20;;;18.80;99.90;;;;;;5034468;28;20107;-59
2022/06/04 11:15:29;;;;;;;4.32;1.30;;;19.80;99.90;;;;;;5023864;28;20487;-60
2022/06/04 11:18:12;;;;;;;5.00;1.33;;;20.10;99.90;;;;;;5035194;28;20567;-59
2022/06/04 11:20:43;;;;;;;8.10;1.40;;;20.30;99.90;;;;;;5033924;28;20116;-59
2022/06/04 11:23:40;;;;;;;6.13;1.67;;;20.10;99.90;;;;;;5031498;28;20063;-61
2022/06/04 11:26:35;;;;;;;3.53;1.42;;;19.90;99.90;;;;;;5039782;28;20049;-61
2022/06/04 11:29:03;;;;;;;5.60;1.55;;;20.20;99.90;;;;;;5033970;28;20507;-60
2022/06/04 11:31:41;;;;;;;5.65;2.00;;;20.70;99.90;;;;;;5045348;28;20064;-62
2022/06/04 11:34:41;;;;;;;4.85;1.40;;;20.90;99.90;;;;;;5029796;28;20047;-61
2022/06/04 11:37:35;;;;;;;9.43;1.60;;;20.70;99.90;;;;;;5060261;28;20530;-61
2022/06/04 11:40:20;;;;;;;5.07;1.27;;;20.60;99.90;;;;;;5025529;28;20049;-60
2022/06/04 11:42:57;;;;;;;4.93;1.15;;;20.40;99.90;;;;;;5059678;28;20067;-61
2022/06/04 11:45:25;;;;;;;4.32;1.20;;;20.20;99.90;;;;;;5032209;28;20033;-61
2022/06/04 11:48:09;;;;;;;6.85;1.60;;;19.60;99.90;;;;;;5030765;28;20033;-60
2022/06/04 11:50:38;;;;;;;3.80;1.30;;;19.70;99.90;;;;;;5054718;28;20076;-60
2022/06/04 11:53:12;;;;;;;4.13;1.38;;;19.50;99.90;;;;;;5043953;28;20072;-61
2022/06/04 11:55:57;;;;;;;5.60;1.60;;;18.80;99.90;;;;;;5029729;28;20041;-60
2022/06/04 11:58:38;;;;;;;6.43;1.75;;;18.80;99.90;;;;;;5029189;28;20075;-61
2022/06/04 12:01:11;;;;;;;5.75;1.70;;;19.00;99.90;;;;;;5028876;28;20049;-60
2022/06/04 12:03:46;;;;;;;6.63;2.17;;;18.20;99.90;;;;;;5058418;28;20037;-60
2022/06/04 12:06:28;;;;;;;6.10;1.63;;;18.60;99.90;;;;;;5037874;28;20056;-60
2022/06/04 12:09:19;;;;;;;4.07;1.58;;;18.60;99.90;;;;;;5038212;28;20137;-60
2022/06/04 12:12:26;;;;;;;8.73;2.00;;;19.00;99.90;;;;;;5036075;28;20520;-60
2022/06/04 12:15:17;;;;;;;7.30;1.55;;;18.90;99.90;;;;;;4995063;28;20050;-61
2022/06/04 12:17:49;;;;;;;5.00;1.52;;;19.10;99.90;;;;;;5029926;28;20056;-60
2022/06/04 12:26:17;;;;;;;6.30;1.70;;;19.20;99.90;;;;;;5053577;28;20122;-60
2022/06/04 12:28:42;;;;;;;7.30;1.92;;;18.90;99.90;;;;;;5048494;28;20222;-61
2022/06/04 12:31:08;;;;;;;10.40;1.80;;;19.00;99.90;;;;;;5015740;28;20131;-61
2022/06/04 12:33:48;;;;;;;6.55;1.88;;;19.00;99.90;;;;;;5034214;28;20038;-61
2022/06/04 12:36:28;;;;;;;4.15;1.35;;;19.20;99.90;;;;;;5036689;28;20443;-60
2022/06/04 12:39:00;;;;;;;6.85;1.80;;;19.40;99.90;;;;;;5049054;28;20076;-60
2022/06/04 12:41:44;;;;;;;6.75;2.00;;;19.50;99.90;;;;;;5034899;28;20073;-61
2022/06/04 12:44:24;;;;;;;6.53;1.85;;;19.40;99.90;;;;;;5036873;28;20042;-60
2022/06/04 12:46:52;;;;;;;8.57;2.05;;;19.10;99.90;;;;;;5036177;28;20043;-60
2022/06/04 12:49:34;;;;;;;8.02;1.90;;;19.50;99.90;;;;;;5044916;28;20045;-60
2022/06/04 12:52:06;;;;;;;6.28;2.05;;;19.60;99.90;;;;;;5032256;28;20099;-60
2022/06/04 12:54:47;;;;;;;9.10;1.70;;;19.80;99.90;;;;;;5045414;28;20129;-60
2022/06/04 12:57:16;;;;;;;7.75;1.92;;;20.30;99.90;;;;;;5035947;28;20041;-60
2022/06/04 12:59:51;;;;;;;4.57;1.70;;;20.90;99.90;;;;;;5048814;28;20053;-60
2022/06/04 13:02:36;;;;;;;4.28;1.45;;;21.30;99.90;;;;;;5032449;28;20050;-60
2022/06/04 13:05:13;;;;;;;3.78;1.48;;;21.70;99.90;;;;;;5033364;28;20478;-61
2022/06/04 13:08:06;;;;;;;6.88;1.90;;;21.80;99.90;;;;;;5048234;28;20409;-60
2022/06/04 13:10:51;;;;;;;5.88;1.67;;;21.90;99.90;;;;;;5031342;28;20515;-61
2022/06/04 13:13:18;;;;;;;5.60;1.40;;;21.40;99.90;;;;;;5035123;28;20197;-60
2022/06/04 13:15:56;;;;;;;3.58;1.45;;;21.50;99.90;;;;;;5051594;28;20110;-62
2022/06/04 13:18:39;;;;;;;5.72;1.30;;;22.30;99.90;;;;;;5038220;28;20072;-60
2022/06/04 13:21:15;;;;;;;4.78;1.25;;;22.60;99.90;;;;;;5036946;28;20487;-61
2022/06/04 13:23:56;;;;;;;7.07;1.60;;;21.90;99.90;;;;;;5034323;28;20140;-61
2022/06/04 13:26:28;;;;;;;5.70;1.13;;;21.20;99.90;;;;;;5041253;28;20042;-60
2022/06/04 13:28:54;;;;;;;5.25;1.42;;;21.90;99.90;;;;;;5034464;28;20428;-62
2022/06/04 13:31:27;;;;;;;6.00;1.73;;;21.60;99.90;;;;;;5033825;28;20395;-61
2022/06/04 13:33:54;;;;;;;4.60;1.58;;;22.10;99.90;;;;;;5030943;28;20087;-62